Time;durP1;ratioP1;P1;durP2;ratioP2;P2;SDS_P1;SDS_P2;PMS_P1;PMS_P2;Temp;Humidity;BMP_temperature;BMP_pressure;BME280_temperature;BME280_humidity;BME280_pressure;Samples;Min_cycle;Max_cycle;Signal;HPM_P1;HPM_P2
2023/09/03 00:00:01;;;;;;;8.20;7.10;;;;;;;20.94;70.20;95166.53;5052993;28;20615;-43
2023/09/03 00:02:28;;;;;;;9.45;7.80;;;;;;;20.93;70.31;95164.91;5052090;28;20620;-42
2023/09/03 00:04:54;;;;;;;8.57;6.80;;;;;;;20.87;70.53;95153.50;5051713;28;20203;-43
2023/09/03 00:07:23;;;;;;;8.73;7.25;;;;;;;20.94;70.50;95161.31;5051851;28;20736;-43
2023/09/03 00:09:49;;;;;;;7.68;6.97;;;;;;;20.93;70.60;95160.53;5051658;28;20226;-44
2023/09/03 00:12:16;;;;;;;7.97;7.18;;;;;;;20.93;70.36;95164.91;5051909;28;20203;-44
2023/09/03 00:14:43;;;;;;;8.32;7.53;;;;;;;20.91;70.73;95161.72;5051395;28;20195;-44
2023/09/03 00:17:14;;;;;;;8.00;6.82;;;;;;;20.93;70.61;95164.91;5051946;28;20245;-45
2023/09/03 00:19:40;;;;;;;7.70;7.00;;;;;;;20.92;70.74;95169.31;5051589;28;20219;-44
2023/09/03 00:22:07;;;;;;;7.80;7.10;;;;;;;20.89;70.68;95176.69;5051743;28;20190;-45
2023/09/03 00:24:36;;;;;;;9.07;7.30;;;;;;;20.87;70.64;95186.50;5051733;28;20187;-44
2023/09/03 00:27:02;;;;;;;7.95;7.20;;;;;;;20.85;70.96;95189.25;5051775;28;20225;-44
2023/09/03 00:29:30;;;;;;;7.60;6.90;;;;;;;20.84;70.79;95192.84;5051433;28;20261;-43
2023/09/03 00:31:57;;;;;;;8.00;7.20;;;;;;;20.82;70.63;95194.06;5051825;28;20207;-44
2023/09/03 00:34:23;;;;;;;8.25;7.45;;;;;;;20.84;70.71;95195.47;5051362;28;20191;-44
2023/09/03 00:36:50;;;;;;;7.82;7.03;;;;;;;20.87;70.48;95200.28;5051441;28;20191;-44
2023/09/03 00:39:18;;;;;;;8.18;7.30;;;;;;;20.87;70.70;95202.09;5051536;28;20219;-46
2023/09/03 00:41:47;;;;;;;9.57;7.10;;;;;;;20.85;71.13;95197.06;5051005;28;20678;-43
2023/09/03 00:44:15;;;;;;;8.52;7.72;;;;;;;20.84;71.24;95187.66;5051300;28;20191;-46
2023/09/03 00:46:42;;;;;;;8.52;7.53;;;;;;;20.87;71.15;95182.09;5051181;28;20202;-44
2023/09/03 00:49:10;;;;;;;12.85;8.15;;;;;;;20.87;71.45;95182.09;5051237;28;20955;-44
2023/09/03 00:51:37;;;;;;;9.35;8.18;;;;;;;20.86;71.49;95177.09;5051202;28;20347;-44
2023/09/03 00:54:05;;;;;;;8.77;7.82;;;;;;;20.88;71.56;95180.28;5051390;28;20231;-44
2023/09/03 00:56:32;;;;;;;8.45;7.28;;;;;;;20.85;71.80;95173.66;5050618;28;20191;-44
2023/09/03 00:59:01;;;;;;;10.45;8.10;;;;;;;20.80;71.89;95163.03;5050776;28;20202;-43
2023/09/03 01:01:30;;;;;;;8.07;7.28;;;;;;;20.78;72.50;95180.63;5050927;28;20202;-44
2023/09/03 01:03:57;;;;;;;8.88;7.97;;;;;;;20.74;72.57;95172.41;5050867;28;20578;-44
2023/09/03 01:06:25;;;;;;;8.30;7.47;;;;;;;20.73;72.40;95167.41;5050662;28;20206;-42
2023/09/03 01:08:51;;;;;;;8.63;7.43;;;;;;;20.69;72.54;95158.38;5050638;28;20226;-44
2023/09/03 01:11:31;;;;;;;8.63;7.85;;;;;;;20.58;73.08;95148.47;5050079;28;20198;-44
2023/09/03 01:14:09;;;;;;;8.73;7.35;;;;;;;20.64;73.19;95168.50;5050575;28;20643;-44
2023/09/03 01:16:43;;;;;;;9.80;7.80;;;;;;;20.58;73.52;95162.28;5050296;28;20199;-45
2023/09/03 01:19:29;;;;;;;8.82;7.93;;;;;;;20.56;73.44;95163.47;5050439;28;20241;-45
2023/09/03 01:22:06;;;;;;;9.23;8.32;;;;;;;20.52;73.98;95165.63;5050273;28;20190;-45
2023/09/03 01:24:55;;;;;;;9.68;7.90;;;;;;;20.50;74.40;95162.41;5050458;28;20256;-43
2023/09/03 01:27:29;;;;;;;8.80;7.88;;;;;;;20.38;74.79;95156.06;5050340;28;20199;-45
2023/09/03 01:29:59;;;;;;;8.57;7.78;;;;;;;20.45;74.38;95180.31;5050009;28;20238;-45
2023/09/03 01:32:27;;;;;;;8.45;7.43;;;;;;;20.39;74.13;95178.47;5050656;28;20194;-45
2023/09/03 01:34:55;;;;;;;9.05;7.93;;;;;;;20.30;74.27;95178.59;5050178;28;20195;-44
2023/09/03 01:37:22;;;;;;;8.15;7.35;;;;;;;20.24;74.53;95181.13;5050156;28;20199;-45
2023/09/03 01:39:49;;;;;;;8.32;7.53;;;;;;;20.16;74.54;95170.84;5050048;28;20666;-45
2023/09/03 01:42:16;;;;;;;8.70;7.80;;;;;;;20.12;74.76;95177.41;5050267;28;20202;-45
2023/09/03 01:44:42;;;;;;;8.77;7.87;;;;;;;20.06;74.81;95160.78;5049712;28;20203;-43
2023/09/03 01:47:21;;;;;;;8.68;7.75;;;;;;;20.02;74.80;95173.31;5049876;28;20202;-44
2023/09/03 01:49:55;;;;;;;8.68;7.25;;;;;;;19.99;74.97;95172.88;5050114;28;20280;-45
2023/09/03 01:52:32;;;;;;;7.95;7.15;;;;;;;19.97;75.09;95175.66;5050314;28;20211;-42
2023/09/03 01:55:01;;;;;;;7.88;7.07;;;;;;;19.93;75.20;95177.00;5049412;28;20202;-43
2023/09/03 01:57:31;;;;;;;10.18;7.32;;;;;;;19.89;75.55;95173.19;5049803;28;20187;-43
2023/09/03 02:00:02;;;;;;;13.48;8.23;;;;;;;19.86;75.61;95180.53;5049364;28;20183;-43
2023/09/03 02:02:31;;;;;;;8.30;7.40;;;;;;;19.82;75.91;95174.91;5050047;28;20253;-44
2023/09/03 02:04:58;;;;;;;8.70;7.80;;;;;;;19.77;76.06;95172.03;5049664;28;20191;-42
2023/09/03 02:07:25;;;;;;;8.27;7.40;;;;;;;19.74;75.93;95173.22;5049762;28;20187;-42
2023/09/03 02:09:52;;;;;;;8.60;7.72;;;;;;;19.72;76.11;95166.59;5049666;28;20245;-44
2023/09/03 02:12:23;;;;;;;8.57;7.78;;;;;;;19.69;75.99;95161.75;5049924;28;20179;-42
2023/09/03 02:14:50;;;;;;;8.68;7.80;;;;;;;19.67;76.22;95166.34;5049219;28;20191;-43
2023/09/03 02:17:19;;;;;;;8.27;7.53;;;;;;;19.62;76.40;95158.31;5049939;28;20245;-44
2023/09/03 02:19:48;;;;;;;9.35;7.07;;;;;;;19.16;76.16;95088.47;5050187;28;20191;-43
2023/09/03 02:22:15;;;;;;;9.05;8.18;;;;;;;19.68;76.77;95166.16;5049921;28;20187;-44
2023/09/03 02:24:42;;;;;;;8.48;7.68;;;;;;;19.65;76.82;95163.94;5048896;28;20256;-43
2023/09/03 02:27:09;;;;;;;10.07;8.33;;;;;;;19.60;76.93;95161.03;5048872;28;20191;-43
2023/09/03 02:29:36;;;;;;;9.47;8.57;;;;;;;19.58;77.09;95163.03;5049206;28;20326;-41
2023/09/03 02:32:03;;;;;;;8.80;8.00;;;;;;;19.57;77.05;95165.81;5049440;28;20249;-45
2023/09/03 02:34:30;;;;;;;13.80;7.97;;;;;;;19.55;76.92;95160.78;5049568;28;20195;-44
2023/09/03 02:36:57;;;;;;;12.23;8.40;;;;;;;19.55;77.08;95160.78;5049247;28;20186;-43
2023/09/03 02:39:24;;;;;;;8.83;7.93;;;;;;;19.53;77.29;95163.56;5049166;28;20643;-45
2023/09/03 02:41:51;;;;;;;9.53;8.30;;;;;;;19.38;77.34;95146.41;5048767;28;20194;-43
2023/09/03 02:44:18;;;;;;;8.47;7.67;;;;;;;19.49;77.40;95159.72;5049509;28;20205;-42
2023/09/03 02:46:45;;;;;;;9.27;7.43;;;;;;;19.46;77.36;95165.25;5049167;28;20205;-43
2023/09/03 02:49:12;;;;;;;8.87;7.50;;;;;;;19.48;77.65;95165.91;5049097;28;20290;-44
2023/09/03 02:51:39;;;;;;;8.53;7.73;;;;;;;19.29;77.68;95143.09;5048878;28;20900;-46
2023/09/03 02:54:07;;;;;;;9.13;7.83;;;;;;;19.47;77.73;95177.28;5049024;28;20713;-46
2023/09/03 02:56:35;;;;;;;9.67;8.27;;;;;;;19.52;77.49;95177.53;5048788;28;20194;-44
2023/09/03 02:59:02;;;;;;;10.07;7.78;;;;;;;19.54;77.55;95169.56;5049141;28;20312;-44
2023/09/03 03:01:28;;;;;;;10.13;7.38;;;;;;;19.56;77.32;95167.59;5049199;28;20205;-45
2023/09/03 03:03:55;;;;;;;11.35;8.27;;;;;;;19.54;77.34;95166.97;5048660;28;20198;-44
2023/09/03 03:06:22;;;;;;;9.20;7.70;;;;;;;19.49;77.53;95175.28;5049071;28;20179;-43
2023/09/03 03:08:49;;;;;;;9.55;7.78;;;;;;;19.49;77.31;95166.69;5049084;28;20215;-46
2023/09/03 03:11:18;;;;;;;10.33;7.83;;;;;;;19.46;77.46;95170.44;5048775;28;20585;-44
2023/09/03 03:13:47;;;;;;;8.57;7.67;;;;;;;19.43;77.75;95162.22;5049288;28;20199;-44
2023/09/03 03:16:15;;;;;;;9.07;8.17;;;;;;;19.38;77.87;95157.56;5049131;28;20275;-46
2023/09/03 03:18:45;;;;;;;11.05;7.88;;;;;;;19.34;78.31;95158.13;5048840;28;20688;-43
2023/09/03 03:21:14;;;;;;;8.43;7.63;;;;;;;19.30;78.06;95148.13;5048862;28;20210;-46
2023/09/03 03:23:41;;;;;;;10.93;8.03;;;;;;;19.24;78.60;95153.22;5048531;28;20341;-44
2023/09/03 03:26:09;;;;;;;8.80;7.90;;;;;;;19.23;78.61;95151.59;5048858;28;20198;-44
2023/09/03 03:28:37;;;;;;;9.47;8.57;;;;;;;19.20;78.62;95144.97;5048443;28;20662;-41
2023/09/03 03:31:10;;;;;;;10.52;8.13;;;;;;;19.20;78.82;95147.56;5048777;28;20191;-43
2023/09/03 03:33:38;;;;;;;11.95;8.50;;;;;;;19.09;78.98;95142.84;5048562;28;20290;-43
2023/09/03 03:36:05;;;;;;;9.70;8.77;;;;;;;19.15;79.20;95157.69;5050333;28;20191;-44
2023/09/03 03:38:32;;;;;;;8.03;7.20;;;;;;;19.11;79.26;95155.63;5052233;28;20222;-44
2023/09/03 03:41:09;;;;;;;8.90;8.00;;;;;;;19.08;79.44;95159.38;5052911;28;20199;-44
2023/09/03 03:43:38;;;;;;;10.97;8.37;;;;;;;19.01;79.80;95156.69;5052413;28;20281;-44
2023/09/03 03:46:06;;;;;;;9.53;8.10;;;;;;;18.82;79.63;95120.94;5052456;28;20207;-45
2023/09/03 03:48:33;;;;;;;9.43;8.53;;;;;;;18.86;79.50;95132.56;5052243;28;20679;-45
2023/09/03 03:51:00;;;;;;;9.73;8.57;;;;;;;19.04;79.73;95160.72;5052302;28;20690;-45
2023/09/03 03:53:27;;;;;;;10.30;8.57;;;;;;;19.02;79.86;95171.25;5052271;28;20198;-44
2023/09/03 03:56:00;;;;;;;8.97;7.40;;;;;;;18.97;80.16;95160.63;5051893;28;20682;-45
2023/09/03 03:58:29;;;;;;;9.97;8.97;;;;;;;18.97;80.13;95170.19;5052374;28;20206;-45
2023/09/03 04:00:57;;;;;;;12.17;8.40;;;;;;;18.91;80.29;95166.53;5052005;28;20233;-45
2023/09/03 04:03:27;;;;;;;13.33;9.00;;;;;;;18.88;80.57;95166.88;5052397;28;20179;-43
2023/09/03 04:05:58;;;;;;;10.10;8.70;;;;;;;18.89;80.59;95165.09;5051676;28;20281;-46
2023/09/03 04:08:26;;;;;;;8.77;7.87;;;;;;;18.90;80.49;95172.69;5051885;28;20187;-45
2023/09/03 04:10:59;;;;;;;11.73;8.33;;;;;;;18.92;80.50;95168.13;5051615;28;20231;-43
2023/09/03 04:13:26;;;;;;;9.47;8.30;;;;;;;18.94;80.59;95175.72;5052197;28;20712;-43
2023/09/03 04:15:53;;;;;;;12.57;8.47;;;;;;;18.93;80.64;95171.53;5052163;28;20254;-45
2023/09/03 04:18:21;;;;;;;9.60;8.60;;;;;;;18.97;80.54;95185.75;5051873;28;20248;-46
2023/09/03 04:20:51;;;;;;;9.37;8.30;;;;;;;19.01;80.43;95174.84;5051833;28;20209;-44
2023/09/03 04:23:18;;;;;;;9.10;7.57;;;;;;;19.03;80.58;95170.28;5052123;28;20278;-44
2023/09/03 04:25:44;;;;;;;9.30;8.30;;;;;;;19.05;80.19;95163.16;5051597;28;20187;-44
2023/09/03 04:28:11;;;;;;;12.43;9.10;;;;;;;19.07;80.25;95168.13;5051586;28;20189;-45
2023/09/03 04:30:39;;;;;;;11.60;8.33;;;;;;;18.95;80.47;95157.41;5051472;28;20238;-45
2023/09/03 04:33:07;;;;;;;9.27;8.47;;;;;;;19.11;80.50;95168.59;5051461;28;20191;-45
2023/09/03 04:35:35;;;;;;;13.50;8.53;;;;;;;19.15;80.39;95172.44;5051597;28;20298;-43
2023/09/03 04:38:03;;;;;;;8.95;8.02;;;;;;;19.06;79.98;95143.22;5051649;28;20191;-44
2023/09/03 04:40:33;;;;;;;8.97;8.07;;;;;;;19.25;79.79;95166.00;5051525;28;20256;-44
2023/09/03 04:43:00;;;;;;;10.30;9.00;;;;;;;19.36;79.46;95158.75;5051436;28;20191;-44
2023/09/03 04:45:27;;;;;;;12.70;8.57;;;;;;;19.42;79.23;95156.22;5051282;28;20191;-44
2023/09/03 04:47:53;;;;;;;11.00;8.63;;;;;;;19.52;79.05;95158.56;5050757;28;20213;-44
2023/09/03 04:50:20;;;;;;;9.30;8.30;;;;;;;19.54;78.79;95152.19;5051259;28;20225;-45
2023/09/03 04:52:49;;;;;;;13.77;9.07;;;;;;;19.55;78.63;95148.59;5051035;28;20187;-44
2023/09/03 04:55:16;;;;;;;11.63;8.07;;;;;;;19.52;78.37;95127.44;5051170;28;20249;-46
2023/09/03 04:57:43;;;;;;;10.23;8.90;;;;;;;19.73;78.11;95148.25;5050948;28;20195;-43
2023/09/03 05:00:11;;;;;;;9.17;8.30;;;;;;;19.74;77.97;95141.28;5051134;28;20263;-45
2023/09/03 05:02:38;;;;;;;11.53;8.93;;;;;;;19.76;77.67;95142.69;5050637;28;20655;-45
2023/09/03 05:05:06;;;;;;;10.82;8.60;;;;;;;19.78;77.79;95143.31;5051089;28;20202;-44
2023/09/03 05:07:33;;;;;;;11.17;9.00;;;;;;;19.85;77.55;95145.97;5050795;28;20183;-42
2023/09/03 05:10:01;;;;;;;11.85;8.60;;;;;;;19.92;77.38;95135.69;5050755;28;20227;-43
2023/09/03 05:12:28;;;;;;;9.57;8.68;;;;;;;19.65;76.92;95073.13;5050830;28;20191;-42
2023/09/03 05:14:54;;;;;;;13.75;8.93;;;;;;;20.20;76.34;95138.31;5050742;28;20191;-44
2023/09/03 05:17:21;;;;;;;15.40;8.50;;;;;;;20.45;75.60;95141.34;5050388;28;20179;-42
2023/09/03 05:19:48;;;;;;;13.48;9.25;;;;;;;20.75;74.27;95139.41;5050711;28;20248;-43
2023/09/03 05:22:15;;;;;;;12.80;9.43;;;;;;;21.03;73.30;95137.59;5050683;28;20238;-44
2023/09/03 05:24:42;;;;;;;12.73;8.50;;;;;;;21.18;72.06;95105.44;5050446;28;20671;-46
2023/09/03 05:27:10;;;;;;;18.10;9.05;;;;;;;21.74;70.75;95144.34;5050433;28;20191;-46
2023/09/03 05:29:37;;;;;;;9.73;8.73;;;;;;;22.01;69.52;95145.22;5050021;28;20671;-44
2023/09/03 05:32:04;;;;;;;11.10;9.75;;;;;;;22.32;67.66;95144.69;5050196;28;20540;-44
2023/09/03 05:34:31;;;;;;;10.75;9.45;;;;;;;22.39;67.17;95145.50;5050566;28;20191;-43
2023/09/03 05:36:58;;;;;;;12.75;9.98;;;;;;;22.34;66.75;95134.06;5050577;28;20186;-44
2023/09/03 05:39:26;;;;;;;13.77;9.52;;;;;;;22.54;66.37;95151.31;5050144;28;20202;-48
2023/09/03 05:41:53;;;;;;;10.70;9.60;;;;;;;22.62;65.81;95141.69;5050612;28;20783;-45
2023/09/03 05:44:21;;;;;;;16.02;8.93;;;;;;;22.71;65.78;95153.50;5050000;28;20662;-45
2023/09/03 05:46:48;;;;;;;12.75;8.75;;;;;;;22.88;65.21;95152.09;5050008;28;20195;-45
2023/09/03 05:49:15;;;;;;;11.48;8.32;;;;;;;23.00;64.50;95145.28;5049985;28;20179;-45
2023/09/03 05:51:42;;;;;;;9.82;8.82;;;;;;;23.02;64.05;95153.72;5050184;28;20230;-43
2023/09/03 05:54:09;;;;;;;10.45;9.07;;;;;;;23.04;64.03;95158.72;5050013;28;20661;-45
2023/09/03 05:56:35;;;;;;;10.07;9.07;;;;;;;23.17;63.75;95163.91;5050169;28;20278;-43
2023/09/03 05:59:05;;;;;;;12.02;8.77;;;;;;;23.39;62.80;95156.63;5049184;28;20203;-42
2023/09/03 06:01:33;;;;;;;17.02;8.95;;;;;;;23.50;62.77;95160.44;5050118;28;20195;-44
2023/09/03 06:04:04;;;;;;;8.50;7.70;;;;;;;23.56;62.48;95156.97;5050396;28;20198;-46
2023/09/03 06:06:37;;;;;;;7.97;7.28;;;;;;;23.68;61.65;95157.16;5049979;28;20609;-44
2023/09/03 06:09:04;;;;;;;8.80;7.90;;;;;;;23.90;60.82;95162.91;5049708;28;20291;-45
2023/09/03 06:11:30;;;;;;;11.23;8.18;;;;;;;24.19;60.09;95162.34;5050024;28;20612;-45
2023/09/03 06:13:57;;;;;;;11.35;8.57;;;;;;;24.33;59.05;95160.44;5049737;28;20663;-44
2023/09/03 06:16:25;;;;;;;8.40;7.60;;;;;;;24.43;59.11;95165.22;5049902;28;20197;-45
2023/09/03 06:18:53;;;;;;;12.48;7.90;;;;;;;24.66;58.88;95164.66;5049802;28;20199;-44
2023/09/03 06:21:20;;;;;;;8.77;7.97;;;;;;;24.97;57.96;95161.97;5049331;28;20237;-44
2023/09/03 06:23:47;;;;;;;10.90;8.30;;;;;;;25.20;56.74;95156.13;5049618;28;20321;-43
2023/09/03 06:26:14;;;;;;;7.47;6.78;;;;;;;25.43;56.46;95168.59;5049279;28;20195;-44
2023/09/03 06:28:41;;;;;;;9.27;7.45;;;;;;;25.69;55.63;95175.34;5049457;28;20198;-43
2023/09/03 06:31:08;;;;;;;8.15;7.45;;;;;;;25.90;55.14;95170.66;5049439;28;20234;-46
2023/09/03 06:33:35;;;;;;;10.40;7.03;;;;;;;25.94;54.61;95174.44;5049793;28;20198;-44
2023/09/03 06:36:03;;;;;;;10.75;7.93;;;;;;;25.78;54.67;95165.38;5049518;28;20187;-44
2023/09/03 06:38:30;;;;;;;11.75;7.68;;;;;;;25.83;54.20;95178.63;5049611;28;20191;-45
2023/09/03 06:40:57;;;;;;;8.98;7.93;;;;;;;25.75;54.71;95174.44;5049214;28;20659;-45
2023/09/03 06:43:24;;;;;;;8.98;7.88;;;;;;;25.98;54.61;95179.00;5049532;28;20191;-45
2023/09/03 06:45:50;;;;;;;8.65;7.78;;;;;;;26.41;52.73;95166.72;5049384;28;20646;-44
2023/09/03 06:48:17;;;;;;;10.65;8.73;;;;;;;26.74;52.40;95180.19;5049259;28;20730;-43
2023/09/03 06:50:44;;;;;;;8.07;7.28;;;;;;;26.93;51.59;95188.75;5049563;28;20601;-44
2023/09/03 06:53:12;;;;;;;8.90;8.00;;;;;;;27.05;51.37;95188.75;5049021;28;20561;-44
2023/09/03 06:55:39;;;;;;;8.13;7.32;;;;;;;27.23;50.29;95186.03;5049490;28;20191;-45
2023/09/03 06:58:06;;;;;;;8.10;7.22;;;;;;;27.20;49.80;95183.06;5048809;28;20191;-44
2023/09/03 07:00:34;;;;;;;8.77;7.88;;;;;;;27.08;50.02;95188.31;5049474;28;20560;-45
2023/09/03 07:03:01;;;;;;;11.27;7.97;;;;;;;27.10;50.13;95186.28;5048933;28;20194;-43
2023/09/03 07:05:28;;;;;;;7.30;6.70;;;;;;;27.12;50.21;95184.22;5049529;28;20262;-44
2023/09/03 07:07:55;;;;;;;8.02;7.13;;;;;;;27.32;50.07;95183.84;5049027;28;20248;-45
2023/09/03 07:10:23;;;;;;;8.48;7.68;;;;;;;27.67;48.91;95172.50;5051519;28;20233;-43
2023/09/03 07:12:50;;;;;;;7.80;7.03;;;;;;;28.08;48.05;95179.38;5052806;28;20578;-46
2023/09/03 07:15:17;;;;;;;7.70;6.93;;;;;;;28.30;47.17;95179.50;5053442;28;20179;-44
2023/09/03 07:17:43;;;;;;;8.25;7.47;;;;;;;28.55;46.94;95184.44;5053089;28;20868;-46
2023/09/03 07:20:11;;;;;;;7.97;7.18;;;;;;;28.85;46.64;95188.59;5052982;28;20191;-46
2023/09/03 07:22:37;;;;;;;10.32;7.55;;;;;;;28.87;45.84;95187.31;5053000;28;20195;-44
2023/09/03 07:25:05;;;;;;;9.05;8.15;;;;;;;28.79;46.05;95173.75;5052693;28;20194;-44
2023/09/03 07:27:34;;;;;;;9.23;7.22;;;;;;;28.66;46.42;95180.91;5052893;28;20757;-44
2023/09/03 07:30:02;;;;;;;12.02;7.55;;;;;;;28.74;46.22;95177.88;5052403;28;20223;-46
2023/09/03 07:32:29;;;;;;;9.80;6.82;;;;;;;29.05;46.11;95180.22;5052747;28;20185;-45
2023/09/03 07:34:55;;;;;;;10.05;7.18;;;;;;;29.05;45.15;95175.75;5052496;28;20573;-46
2023/09/03 07:37:22;;;;;;;10.07;8.05;;;;;;;29.12;44.91;95186.13;5052770;28;20183;-43
2023/09/03 07:39:49;;;;;;;8.45;6.95;;;;;;;29.00;45.38;95173.84;5052352;28;20194;-45
2023/09/03 07:42:16;;;;;;;8.05;6.78;;;;;;;28.94;45.08;95182.69;5052469;28;20199;-49
2023/09/03 07:44:44;;;;;;;8.25;6.85;;;;;;;28.94;45.58;95185.31;5052562;28;20195;-45
2023/09/03 07:47:11;;;;;;;6.68;5.90;;;;;;;29.17;44.91;95180.91;5052674;28;20206;-44
2023/09/03 07:49:37;;;;;;;6.60;5.85;;;;;;;29.51;44.11;95181.66;5052504;28;20194;-47
2023/09/03 07:52:06;;;;;;;8.65;6.28;;;;;;;29.67;43.95;95169.50;5052200;28;20217;-44
2023/09/03 07:54:33;;;;;;;9.77;6.40;;;;;;;29.99;42.92;95180.94;5052306;28;20202;-44
2023/09/03 07:57:00;;;;;;;6.10;5.60;;;;;;;30.09;42.66;95180.22;5053174;28;20658;-45
2023/09/03 07:59:27;;;;;;;7.10;6.40;;;;;;;30.11;42.89;95190.56;5052144;28;20229;-44
2023/09/03 08:01:55;;;;;;;7.90;6.22;;;;;;;30.03;42.89;95186.50;5052287;28;20199;-45
2023/09/03 08:04:22;;;;;;;6.88;6.18;;;;;;;30.05;42.93;95191.53;5052231;28;20187;-45
2023/09/03 08:06:48;;;;;;;8.10;6.68;;;;;;;29.96;43.03;95188.53;5052014;28;20183;-46
2023/09/03 08:09:15;;;;;;;7.25;5.68;;;;;;;29.86;42.80;95186.59;5051907;28;20191;-44
2023/09/03 08:11:43;;;;;;;7.20;6.32;;;;;;;29.95;42.89;95184.31;5051760;28;20845;-45
2023/09/03 08:14:09;;;;;;;7.88;6.60;;;;;;;30.21;42.07;95180.91;5052173;28;20562;-42
2023/09/03 08:16:36;;;;;;;7.65;6.53;;;;;;;30.48;41.13;95182.75;5051804;28;20195;-44
2023/09/03 08:19:04;;;;;;;9.18;5.97;;;;;;;30.67;41.06;95183.19;5052043;28;20201;-45
2023/09/03 08:21:31;;;;;;;8.48;6.32;;;;;;;30.48;40.22;95165.09;5051003;28;20187;-46
2023/09/03 08:23:58;;;;;;;8.20;6.57;;;;;;;30.29;40.66;95174.41;5051411;28;20549;-45
2023/09/03 08:26:25;;;;;;;6.38;5.78;;;;;;;30.30;40.65;95170.72;5051311;28;20674;-45
2023/09/03 08:28:52;;;;;;;7.38;5.78;;;;;;;30.51;40.47;95170.91;5051655;28;20614;-45
2023/09/03 08:31:19;;;;;;;9.98;5.53;;;;;;;30.59;39.85;95171.25;5051577;28;20219;-43
2023/09/03 08:33:46;;;;;;;8.35;5.47;;;;;;;30.76;39.94;95173.00;5051879;28;20187;-43
2023/09/03 08:36:15;;;;;;;6.22;5.57;;;;;;;30.77;39.93;95164.81;5051622;28;20191;-44
2023/09/03 08:38:41;;;;;;;6.30;5.50;;;;;;;30.92;38.91;95172.06;5051474;28;20273;-44
2023/09/03 08:41:09;;;;;;;6.20;5.60;;;;;;;31.11;37.79;95167.16;5051614;28;20191;-42
2023/09/03 08:43:38;;;;;;;5.53;5.03;;;;;;;31.29;36.91;95158.81;5051256;28;20187;-44
2023/09/03 08:46:10;;;;;;;5.78;4.95;;;;;;;31.34;36.34;95152.78;5051448;28;20535;-43
2023/09/03 08:48:38;;;;;;;5.70;5.03;;;;;;;31.29;36.71;95153.53;5051505;28;20191;-44
2023/09/03 08:51:05;;;;;;;5.60;4.90;;;;;;;31.29;35.97;95142.19;5051478;28;20222;-44
2023/09/03 08:53:35;;;;;;;7.22;4.90;;;;;;;31.09;36.49;95142.81;5051317;28;20187;-44
2023/09/03 08:56:02;;;;;;;5.30;4.90;;;;;;;30.90;37.00;95142.44;5050936;28;20198;-44
2023/09/03 08:58:29;;;;;;;5.28;4.35;;;;;;;30.94;36.92;95140.88;5050869;28;20187;-45
2023/09/03 09:00:56;;;;;;;6.60;4.93;;;;;;;31.07;36.32;95137.81;5051381;28;20202;-43
2023/09/03 09:03:28;;;;;;;7.65;5.03;;;;;;;31.19;36.46;95133.13;5051228;28;20187;-43
2023/09/03 09:05:56;;;;;;;5.07;4.68;;;;;;;31.22;35.34;95121.25;5051168;28;20570;-45
2023/09/03 09:08:24;;;;;;;5.55;4.20;;;;;;;31.00;35.42;95118.72;5050962;28;20600;-44
2023/09/03 09:10:54;;;;;;;6.35;4.45;;;;;;;30.95;35.49;95116.06;5051209;28;20223;-44
2023/09/03 09:13:24;;;;;;;6.05;4.78;;;;;;;30.87;35.97;95117.34;5050838;28;20554;-44
2023/09/03 09:15:52;;;;;;;4.82;4.43;;;;;;;31.02;35.71;95119.28;5051409;28;20184;-45
2023/09/03 09:18:19;;;;;;;5.85;5.07;;;;;;;30.69;35.31;95059.59;5050467;28;20602;-45
2023/09/03 09:20:47;;;;;;;5.10;4.60;;;;;;;30.98;35.66;95121.63;5050691;28;20203;-43
2023/09/03 09:23:22;;;;;;;8.13;4.70;;;;;;;30.94;35.75;95111.84;5050402;28;20492;-44
2023/09/03 09:25:50;;;;;;;6.80;4.65;;;;;;;31.01;35.05;95107.13;5050667;28;20195;-44
2023/09/03 09:28:19;;;;;;;8.57;5.00;;;;;;;31.10;35.11;95108.22;5050205;28;20195;-43
2023/09/03 09:30:54;;;;;;;5.53;5.03;;;;;;;31.08;35.06;95093.66;5050547;28;20223;-46
2023/09/03 09:33:21;;;;;;;6.95;4.68;;;;;;;31.05;35.03;95110.06;5050251;28;20234;-44
2023/09/03 09:35:49;;;;;;;6.05;5.03;;;;;;;30.94;35.50;95099.41;5050411;28;20198;-45
2023/09/03 09:38:17;;;;;;;4.88;4.47;;;;;;;31.07;35.44;95097.38;5050350;28;20187;-44
2023/09/03 09:40:44;;;;;;;5.65;5.03;;;;;;;31.14;35.01;95090.03;5050565;28;20683;-45
2023/09/03 09:43:11;;;;;;;6.05;5.13;;;;;;;31.10;35.00;95087.09;5050643;28;20198;-45
2023/09/03 09:45:50;;;;;;;5.43;4.93;;;;;;;31.19;34.57;95085.53;5050217;28;20191;-43
2023/09/03 09:48:17;;;;;;;6.18;4.65;;;;;;;30.92;35.00;95092.81;5050506;28;20186;-43
2023/09/03 09:50:45;;;;;;;5.32;4.82;;;;;;;30.80;34.50;95081.66;5050187;28;20759;-45
2023/09/03 09:53:23;;;;;;;5.47;4.97;;;;;;;30.72;34.53;95081.06;5050110;28;20194;-43
2023/09/03 09:55:58;;;;;;;5.65;5.10;;;;;;;30.73;34.54;95087.94;5050229;28;20202;-45
2023/09/03 09:58:35;;;;;;;6.07;5.30;;;;;;;30.64;35.09;95083.34;5049857;28;20183;-45
2023/09/03 10:01:04;;;;;;;9.07;4.85;;;;;;;30.65;34.76;95069.09;5049997;28;20249;-44
2023/09/03 10:03:47;;;;;;;6.68;5.47;;;;;;;30.52;35.13;95059.75;5049695;28;20241;-43
2023/09/03 10:06:14;;;;;;;6.28;4.85;;;;;;;30.45;35.03;95061.84;5047897;28;20279;-44
2023/09/03 10:08:42;;;;;;;5.75;5.18;;;;;;;30.27;35.40;95031.38;5049892;28;20198;-46
2023/09/03 10:11:10;;;;;;;5.35;4.82;;;;;;;30.43;34.85;95035.69;5049653;28;20223;-45
2023/09/03 10:13:39;;;;;;;5.63;5.13;;;;;;;30.36;34.73;95035.13;5049653;28;20206;-44
2023/09/03 10:16:08;;;;;;;5.80;5.10;;;;;;;29.86;35.06;94985.34;5050003;28;20189;-43
2023/09/03 10:18:40;;;;;;;5.43;4.93;;;;;;;30.09;35.33;95037.75;5049481;28;20191;-43
2023/09/03 10:21:08;;;;;;;5.57;5.07;;;;;;;30.07;34.61;95029.31;5049486;28;20203;-45
2023/09/03 10:23:40;;;;;;;8.00;5.28;;;;;;;29.97;34.86;95031.88;5049721;28;20215;-44
2023/09/03 10:26:09;;;;;;;6.88;5.88;;;;;;;30.00;34.53;95021.59;5049297;28;20202;-44
2023/09/03 10:28:39;;;;;;;8.18;6.00;;;;;;;29.98;34.70;95025.56;5049237;28;20183;-45
2023/09/03 10:31:09;;;;;;;7.90;5.45;;;;;;;29.93;34.81;95028.94;5049486;28;20290;-45
2023/09/03 10:33:36;;;;;;;5.78;5.13;;;;;;;29.98;34.56;95026.34;5049394;28;20830;-44
2023/09/03 10:36:16;;;;;;;4.63;4.20;;;;;;;29.96;34.10;95004.69;5049525;28;20191;-44
2023/09/03 10:38:46;;;;;;;5.45;4.95;;;;;;;30.13;34.13;95016.97;5049172;28;20304;-45
2023/09/03 10:41:20;;;;;;;6.20;4.57;;;;;;;29.84;34.44;94955.81;5049393;28;20199;-43
2023/09/03 10:43:48;;;;;;;5.30;4.80;;;;;;;30.31;34.21;95016.63;5049284;28;20183;-44
2023/09/03 10:46:17;;;;;;;5.97;5.30;;;;;;;30.36;34.18;95006.09;5049259;28;20194;-43
2023/09/03 10:49:01;;;;;;;6.72;5.13;;;;;;;30.41;33.98;95003.47;5049183;28;20190;-46
2023/09/03 10:51:36;;;;;;;5.72;4.68;;;;;;;30.56;34.21;94994.06;5049142;28;20721;-45
2023/09/03 10:54:16;;;;;;;5.18;4.68;;;;;;;30.57;34.35;94988.53;5049035;28;20286;-43
2023/09/03 10:57:17;;;;;;;5.07;4.57;;;;;;;30.69;33.67;94986.47;5049134;28;20574;-46
2023/09/03 11:00:10;;;;;;;5.43;4.68;;;;;;;30.59;33.05;94981.16;5049064;28;20230;-43
2023/09/03 11:02:39;;;;;;;5.63;4.80;;;;;;;30.43;33.70;94979.47;5049123;28;20210;-43
2023/09/03 11:05:10;;;;;;;4.97;4.47;;;;;;;30.15;33.99;94954.22;5048955;28;20187;-43
2023/09/03 11:07:37;;;;;;;6.35;4.47;;;;;;;30.21;33.74;94955.84;5048820;28;20191;-45
2023/09/03 11:10:43;;;;;;;5.55;5.00;;;;;;;30.39;34.04;94963.34;5049109;28;20202;-45
2023/09/03 11:13:13;;;;;;;5.53;4.85;;;;;;;30.48;33.83;94967.09;4968166;28;20218;-45
2023/09/03 11:15:48;;;;;;;7.05;4.95;;;;;;;30.61;33.48;94970.31;4968001;28;20202;-44
2023/09/03 11:18:21;;;;;;;5.68;4.78;;;;;;;30.47;34.24;94956.78;4968232;28;20288;-46
2023/09/03 11:20:49;;;;;;;6.32;5.13;;;;;;;30.53;34.04;94950.50;4967904;28;20202;-46
2023/09/03 11:23:17;;;;;;;7.15;4.95;;;;;;;30.62;33.77;94950.81;4968215;28;20245;-46
2023/09/03 11:25:44;;;;;;;5.13;4.30;;;;;;;30.77;33.42;94953.53;4967966;28;20665;-45
2023/09/03 11:28:12;;;;;;;5.50;4.93;;;;;;;30.72;33.30;94951.66;4968048;28;20223;-44
2023/09/03 11:30:40;;;;;;;5.53;4.45;;;;;;;30.70;33.43;94950.28;4967567;28;20737;-46
2023/09/03 11:33:08;;;;;;;6.32;4.72;;;;;;;30.63;33.58;94944.47;4968052;28;20216;-44
2023/09/03 11:35:46;;;;;;;6.63;4.65;;;;;;;30.53;33.63;94944.41;4968386;28;20209;-43
2023/09/03 11:38:13;;;;;;;5.53;4.60;;;;;;;30.51;33.68;94930.69;4968362;28;20190;-45